Terminal Aerodrome Forecast
Issued by NWS

Home | Current Version | Previous Version | Text Only | Print | Product List | Glossary On
Versions: 1 2 3 4 5 6 7 8 9 10 11 12 13 14 15 16 17 18 19 20
000
FTUS41 KGYX 012056 AAB
TAFPSM
TAF AMD
KPSM 012056Z 0121/0218 24008KT P6SM FEW080 SCT150 BKN250
     FM020000 28004KT P6SM SCT060
     FM021200 27006KT P6SM FEW250=

USA.gov is the U.S. government's official web portal to all federal, state and local government web resources and services.